createdAt,value
2018-01-29T00:01:02.108Z,99859.80
2018-01-29T00:03:29.963Z,99860.06
2018-01-29T00:05:57.846Z,99847.72
2018-01-29T00:08:25.774Z,99857.89
2018-01-29T00:10:54.363Z,99861.52
2018-01-29T00:13:22.856Z,99865.47
2018-01-29T00:15:50.996Z,99863.55
2018-01-29T00:18:18.847Z,99864.44
2018-01-29T00:20:46.741Z,99859.91
2018-01-29T00:23:14.769Z,99865.05
2018-01-29T00:25:42.614Z,99863.59
2018-01-29T00:28:10.461Z,99851.67
2018-01-29T00:30:38.367Z,99863.13
2018-01-29T00:33:06.220Z,99853.83
2018-01-29T00:35:34.084Z,99858.72
2018-01-29T00:38:02.032Z,99853.23
2018-01-29T00:40:29.889Z,99848.17
2018-01-29T00:42:57.737Z,99840.73
2018-01-29T00:45:25.655Z,99843.58
2018-01-29T00:47:53.556Z,99830.98
2018-01-29T00:50:21.857Z,99840.28
2018-01-29T00:52:49.974Z,99839.70
2018-01-29T00:55:18.202Z,99832.55
2018-01-29T00:57:46.055Z,99829.99
2018-01-29T01:00:14.007Z,99820.73
2018-01-29T01:02:41.863Z,99833.94
2018-01-29T01:05:09.707Z,99828.05
2018-01-29T01:07:38.042Z,99819.75
2018-01-29T01:10:05.899Z,99825.97
2018-01-29T01:12:33.751Z,99833.47
2018-01-29T01:15:01.637Z,99830.27
2018-01-29T01:17:29.470Z,99818.63
2018-01-29T01:19:57.392Z,99819.44
2018-01-29T01:22:26.461Z,99826.63
2018-01-29T01:24:54.326Z,99818.55
2018-01-29T01:27:22.198Z,99811.30
2018-01-29T01:29:50.125Z,99811.37
2018-01-29T01:32:17.993Z,99808.33
2018-01-29T01:34:45.858Z,99810.13
2018-01-29T01:37:14.441Z,99812.31
2018-01-29T01:39:42.281Z,99816.98
2018-01-29T01:42:10.208Z,99819.36
2018-01-29T01:44:38.178Z,99812.11
2018-01-29T01:47:06.030Z,99816.39
2018-01-29T01:49:34.022Z,99825.39
2018-01-29T01:52:01.944Z,99815.36
2018-01-29T01:54:29.791Z,99812.48
2018-01-29T01:56:57.751Z,99809.28
2018-01-29T01:59:25.655Z,99799.34
2018-01-29T02:01:53.503Z,99786.64
2018-01-29T02:04:21.365Z,99774.55
2018-01-29T02:06:49.264Z,99762.13
2018-01-29T02:09:17.110Z,99778.85
2018-01-29T02:11:44.996Z,99783.20
2018-01-29T02:14:12.898Z,99795.12
2018-01-29T02:16:40.747Z,99793.23
2018-01-29T02:19:08.586Z,99789.77
2018-01-29T02:21:36.479Z,99782.53
2018-01-29T02:24:04.374Z,99780.44
2018-01-29T02:26:32.226Z,99794.72
2018-01-29T02:29:00.182Z,99805.22
2018-01-29T02:31:28.064Z,99803.12
2018-01-29T02:33:55.910Z,99790.06
2018-01-29T02:36:24.080Z,99782.00
2018-01-29T02:38:51.986Z,99768.20
2018-01-29T02:41:19.873Z,99768.20
2018-01-29T02:43:47.775Z,99764.13
2018-01-29T02:46:15.657Z,99765.66
2018-01-29T02:48:43.540Z,99771.52
2018-01-29T02:51:11.939Z,99770.98
2018-01-29T02:53:39.832Z,99771.52
2018-01-29T02:56:07.720Z,99764.41
2018-01-29T02:58:35.734Z,99758.03
2018-01-29T03:01:03.595Z,99758.66
2018-01-29T03:03:31.512Z,99769.75
2018-01-29T03:05:59.434Z,99775.52
2018-01-29T03:08:28.201Z,99784.00
2018-01-29T03:10:56.061Z,99782.88
2018-01-29T03:13:24.293Z,99783.95
2018-01-29T03:15:52.130Z,99774.38
2018-01-29T03:18:20.001Z,99772.94
2018-01-29T03:20:47.955Z,99764.03
2018-01-29T03:23:15.820Z,99769.84
2018-01-29T03:25:43.711Z,99773.58
2018-01-29T03:28:11.614Z,99780.39
2018-01-29T03:30:39.479Z,99782.63
2018-01-29T03:33:07.367Z,99775.19
2018-01-29T03:35:35.267Z,99766.88
2018-01-29T03:38:03.124Z,99774.54
2018-01-29T03:40:30.990Z,99766.41
2018-01-29T03:42:58.903Z,99772.52
2018-01-29T03:45:26.807Z,99780.19
2018-01-29T03:47:54.662Z,99778.23
2018-01-29T03:50:22.795Z,99785.16
2018-01-29T03:52:50.726Z,99777.60
2018-01-29T03:55:18.635Z,99778.55
2018-01-29T03:57:46.551Z,99773.22
2018-01-29T04:00:14.538Z,99760.91
2018-01-29T04:02:43.322Z,99762.98
2018-01-29T04:05:11.682Z,99766.34
2018-01-29T04:07:39.534Z,99754.66
2018-01-29T04:10:07.371Z,99767.45
2018-01-29T04:12:35.275Z,99756.10
2018-01-29T04:15:03.124Z,99754.53
2018-01-29T04:17:30.990Z,99756.87
2018-01-29T04:19:59.165Z,99758.23
2018-01-29T04:22:26.997Z,99755.15
2018-01-29T04:24:54.882Z,99745.38
2018-01-29T04:27:22.792Z,99748.89
2018-01-29T04:29:51.214Z,99758.05
2018-01-29T04:32:19.066Z,99763.72
2018-01-29T04:34:46.966Z,99758.40
2018-01-29T04:37:14.818Z,99764.02
2018-01-29T04:39:42.656Z,99741.58
2018-01-29T04:42:10.566Z,99736.26
2018-01-29T04:44:38.495Z,99747.64
2018-01-29T04:47:06.382Z,99742.20
2018-01-29T04:49:34.274Z,99747.60
2018-01-29T04:52:02.140Z,99756.47
2018-01-29T04:54:29.986Z,99759.78
2018-01-29T04:56:57.890Z,99764.16
2018-01-29T04:59:25.768Z,99761.07
2018-01-29T05:01:53.694Z,99751.78
2018-01-29T05:04:21.899Z,99759.05
2018-01-29T05:06:49.737Z,99757.33
2018-01-29T05:09:17.588Z,99758.30
2018-01-29T05:11:45.525Z,99770.25
2018-01-29T05:14:13.389Z,99769.42
2018-01-29T05:16:41.265Z,99766.02
2018-01-29T05:19:09.187Z,99765.91
2018-01-29T05:21:37.061Z,99763.56
2018-01-29T05:24:05.464Z,99784.12
2018-01-29T05:26:33.376Z,99776.91
2018-01-29T05:29:01.244Z,99758.84
2018-01-29T05:31:29.110Z,99772.64
2018-01-29T05:33:57.062Z,99772.28
2018-01-29T05:36:25.515Z,99774.91
2018-01-29T05:38:58.064Z,99772.33
2018-01-29T05:41:25.969Z,99768.73
2018-01-29T05:43:53.851Z,99780.11
2018-01-29T05:46:22.290Z,99781.91
2018-01-29T05:48:50.192Z,99770.94
2018-01-29T05:51:18.095Z,99775.27
2018-01-29T05:53:46.047Z,99773.56
2018-01-29T05:56:13.908Z,99775.88
2018-01-29T05:58:41.789Z,99782.08
2018-01-29T06:01:09.716Z,99774.41
2018-01-29T06:03:37.662Z,99775.41
2018-01-29T06:06:05.522Z,99781.16
2018-01-29T06:08:33.399Z,99780.06
2018-01-29T06:11:01.295Z,99792.94
2018-01-29T06:13:29.163Z,99794.50
2018-01-29T06:15:57.080Z,99794.53
2018-01-29T06:18:24.947Z,99800.74
2018-01-29T06:20:55.716Z,99807.02
2018-01-29T06:23:23.658Z,99798.97
2018-01-29T06:25:51.524Z,99805.20
2018-01-29T06:28:19.722Z,99794.20
2018-01-29T06:30:47.624Z,99799.22
2018-01-29T06:33:15.491Z,99800.30
2018-01-29T06:35:43.327Z,99791.71
2018-01-29T06:38:11.502Z,99793.59
2018-01-29T06:40:39.408Z,99788.31
2018-01-29T06:43:07.255Z,99793.70
2018-01-29T06:45:35.161Z,99792.64
2018-01-29T06:48:03.007Z,99782.39
2018-01-29T06:50:30.844Z,99790.09
2018-01-29T06:52:58.823Z,99787.64
2018-01-29T06:55:26.691Z,99784.23
2018-01-29T06:57:54.555Z,99783.84
2018-01-29T07:00:23.358Z,99776.80
2018-01-29T07:02:51.225Z,99785.47
2018-01-29T07:05:19.576Z,99776.86
2018-01-29T07:07:47.795Z,99777.95
2018-01-29T07:10:15.714Z,99778.86
2018-01-29T07:12:43.560Z,99770.98
2018-01-29T07:15:11.470Z,99773.08
2018-01-29T07:17:39.342Z,99776.19
2018-01-29T07:20:07.223Z,99782.78
2018-01-29T07:22:35.115Z,99786.69
2018-01-29T07:25:02.958Z,99777.72
2018-01-29T07:27:30.871Z,99775.59
2018-01-29T07:29:58.799Z,99784.97
2018-01-29T07:32:26.642Z,99785.74
2018-01-29T07:34:54.481Z,99785.63
2018-01-29T07:37:22.442Z,99784.64
2018-01-29T07:39:50.324Z,99774.39
2018-01-29T07:42:18.201Z,99783.28
2018-01-29T07:44:46.138Z,99781.44
2018-01-29T07:47:14.002Z,99776.98
2018-01-29T07:49:41.893Z,99780.11
2018-01-29T07:52:09.811Z,99770.63
2018-01-29T07:54:38.427Z,99762.19
2018-01-29T07:57:07.249Z,99761.92
2018-01-29T07:59:35.741Z,99767.17
2018-01-29T08:02:04.423Z,99771.99
2018-01-29T08:04:33.554Z,99776.48
2018-01-29T08:07:01.561Z,99790.77
2018-01-29T08:09:29.433Z,99789.63
2018-01-29T08:11:57.319Z,99793.91
2018-01-29T08:14:25.230Z,99788.11
2018-01-29T08:16:53.109Z,99795.75
2018-01-29T08:19:20.986Z,99795.87
2018-01-29T08:21:48.898Z,99803.81
2018-01-29T08:24:16.753Z,99798.45
2018-01-29T08:26:45.035Z,99798.91
2018-01-29T08:29:12.938Z,99804.85
2018-01-29T08:31:40.852Z,99802.70
2018-01-29T08:34:08.718Z,99804.60
2018-01-29T08:36:36.823Z,99802.88
2018-01-29T08:39:04.792Z,99797.27
2018-01-29T08:41:32.715Z,99804.42
2018-01-29T08:44:00.711Z,99811.16
2018-01-29T08:46:28.562Z,99811.09
2018-01-29T08:48:56.441Z,99808.34
2018-01-29T08:51:24.393Z,99810.86
2018-01-29T08:53:52.259Z,99817.13
2018-01-29T08:56:20.116Z,99807.52
2018-01-29T08:58:48.061Z,99814.94
2018-01-29T09:01:15.925Z,99814.94
2018-01-29T09:03:43.778Z,99819.38
2018-01-29T09:06:11.994Z,99824.24
2018-01-29T09:08:39.887Z,99819.44
2018-01-29T09:11:08.273Z,99823.14
2018-01-29T09:13:36.227Z,99818.94
2018-01-29T09:16:04.102Z,99816.70
2018-01-29T09:18:31.967Z,99816.19
2018-01-29T09:20:59.864Z,99813.13
2018-01-29T09:23:27.719Z,99816.55
2018-01-29T09:25:55.567Z,99814.15
2018-01-29T09:28:23.495Z,99819.41
2018-01-29T09:30:51.369Z,99820.09
2018-01-29T09:33:19.321Z,99818.18
2018-01-29T09:35:47.351Z,99814.44
2018-01-29T09:38:15.306Z,99810.23
2018-01-29T09:40:43.195Z,99808.51
2018-01-29T09:43:11.115Z,99800.52
2018-01-29T09:45:38.984Z,99802.75
2018-01-29T09:48:07.431Z,99796.92
2018-01-29T09:50:35.388Z,99792.31
2018-01-29T09:53:03.257Z,99780.91
2018-01-29T09:55:31.155Z,99774.95
2018-01-29T09:57:59.096Z,99767.39
2018-01-29T10:00:27.028Z,99765.89
2018-01-29T10:02:54.973Z,99758.09
2018-01-29T10:05:22.959Z,99759.92
2018-01-29T10:07:50.868Z,99751.62
2018-01-29T10:10:19.203Z,99743.95
2018-01-29T10:12:47.483Z,99746.39
2018-01-29T10:15:15.366Z,99745.37
2018-01-29T10:17:43.258Z,99736.42
2018-01-29T10:20:11.207Z,99737.16
2018-01-29T10:22:39.062Z,99734.86
2018-01-29T10:25:06.907Z,99734.05
2018-01-29T10:27:34.833Z,99735.89
2018-01-29T10:30:02.707Z,99724.75
2018-01-29T10:32:30.713Z,99719.25
2018-01-29T10:34:58.649Z,99723.58
2018-01-29T10:37:26.529Z,99725.39
2018-01-29T10:39:54.383Z,99718.13
2018-01-29T10:42:22.349Z,99713.63
2018-01-29T10:44:50.226Z,99700.86
2018-01-29T10:47:18.064Z,99711.09
2018-01-29T10:49:45.961Z,99713.23
2018-01-29T10:52:14.325Z,99709.08
2018-01-29T10:54:42.175Z,99711.45
2018-01-29T10:57:10.067Z,99703.98
2018-01-29T10:59:37.986Z,99703.80
2018-01-29T11:02:05.866Z,99694.38
2018-01-29T11:04:35.013Z,99692.73
2018-01-29T11:07:02.891Z,99696.05
2018-01-29T11:09:30.841Z,99691.83
2018-01-29T11:11:59.897Z,99683.30
2018-01-29T11:14:28.144Z,99685.53
2018-01-29T11:16:56.008Z,99677.81
2018-01-29T11:19:23.984Z,99674.89
2018-01-29T11:21:51.904Z,99680.34
2018-01-29T11:24:20.250Z,99674.53
2018-01-29T11:26:49.214Z,99666.19
2018-01-29T11:29:17.096Z,99658.60
2018-01-29T11:31:44.987Z,99655.27
2018-01-29T11:34:18.228Z,99652.46
2018-01-29T11:36:46.648Z,99645.55
2018-01-29T11:39:15.264Z,99643.70
2018-01-29T11:41:43.909Z,99639.52
2018-01-29T11:44:11.806Z,99636.86
2018-01-29T11:46:40.498Z,99623.16
2018-01-29T11:49:08.892Z,99618.97
2018-01-29T11:51:39.756Z,99620.63
2018-01-29T11:54:08.731Z,99618.13
2018-01-29T11:56:37.814Z,99615.62
2018-01-29T11:59:06.000Z,99623.55
2018-01-29T12:01:34.489Z,99617.75
2018-01-29T12:04:02.407Z,99609.05
2018-01-29T12:06:30.303Z,99600.44
2018-01-29T12:08:58.331Z,99604.62
2018-01-29T12:11:26.501Z,99590.61
2018-01-29T12:13:54.519Z,99587.80
2018-01-29T12:16:22.446Z,99577.69
2018-01-29T12:18:50.464Z,99573.48
2018-01-29T12:21:18.311Z,99567.83
2018-01-29T12:23:46.281Z,99568.74
2018-01-29T12:26:14.256Z,99560.52
2018-01-29T12:28:42.185Z,99569.26
2018-01-29T12:31:10.114Z,99565.59
2018-01-29T12:33:38.066Z,99563.91
2018-01-29T12:36:05.958Z,99560.77
2018-01-29T12:38:34.585Z,99560.57
2018-01-29T12:41:02.535Z,99555.03
2018-01-29T12:43:30.507Z,99555.56
2018-01-29T12:45:59.661Z,99547.95
2018-01-29T12:48:27.694Z,99551.31
2018-01-29T12:50:55.640Z,99548.12
2018-01-29T12:53:23.741Z,99546.14
2018-01-29T12:55:51.766Z,99541.17
2018-01-29T12:58:20.007Z,99547.46
2018-01-29T13:00:48.298Z,99537.53
2018-01-29T13:03:16.203Z,99543.56
2018-01-29T13:05:44.096Z,99538.92
2018-01-29T13:08:11.958Z,99528.37
2018-01-29T13:10:39.932Z,99529.73
2018-01-29T13:13:08.407Z,99531.92
2018-01-29T13:15:36.570Z,99530.67
2018-01-29T13:18:04.539Z,99519.92
2018-01-29T13:20:32.437Z,99515.61
2018-01-29T13:23:00.524Z,99510.23
2018-01-29T13:25:28.692Z,99513.77
2018-01-29T13:27:56.540Z,99519.61
2018-01-29T13:30:24.454Z,99510.75
2018-01-29T13:32:52.448Z,99507.91
2018-01-29T13:35:20.488Z,99514.99
2018-01-29T13:37:48.350Z,99522.64
2018-01-29T13:40:16.250Z,99517.15
2018-01-29T13:42:44.134Z,99511.47
2018-01-29T13:45:12.154Z,99506.19
2018-01-29T13:47:40.074Z,99505.81
2018-01-29T13:50:07.938Z,99509.36
2018-01-29T13:52:35.787Z,99502.01
2018-01-29T13:55:03.732Z,99499.86
2018-01-29T13:57:31.608Z,99502.62
2018-01-29T13:59:59.476Z,99498.22
2018-01-29T14:02:27.384Z,99498.11
2018-01-29T14:04:55.311Z,99491.93
2018-01-29T14:07:23.230Z,99488.34
2018-01-29T14:09:51.251Z,99495.81
2018-01-29T14:12:19.340Z,99496.44
2018-01-29T14:14:47.528Z,99483.43
2018-01-29T14:17:15.869Z,99490.22
2018-01-29T14:19:44.809Z,99489.63
2018-01-29T14:22:12.868Z,99491.97
2018-01-29T14:24:41.677Z,99494.16
2018-01-29T14:27:10.070Z,99500.22
2018-01-29T14:29:38.314Z,99497.78
2018-01-29T14:32:06.642Z,99499.03
2018-01-29T14:34:35.094Z,99501.07
2018-01-29T14:37:03.687Z,99495.92
2018-01-29T14:39:31.788Z,99502.67
2018-01-29T14:42:00.318Z,99495.70
2018-01-29T14:44:28.541Z,99504.23
2018-01-29T14:46:56.771Z,99503.16
2018-01-29T14:49:24.901Z,99503.83
2018-01-29T14:51:53.158Z,99499.97
2018-01-29T14:54:21.516Z,99504.13
2018-01-29T14:56:49.614Z,99507.36
2018-01-29T14:59:17.719Z,99506.95
2018-01-29T15:01:45.721Z,99499.98
2018-01-29T15:04:13.730Z,99504.20
2018-01-29T15:06:42.336Z,99499.75
2018-01-29T15:09:10.337Z,99501.94
2018-01-29T15:11:38.400Z,99488.65
2018-01-29T15:14:06.958Z,99491.34
2018-01-29T15:16:35.140Z,99488.09
2018-01-29T15:19:03.168Z,99486.53
2018-01-29T15:21:31.072Z,99489.08
2018-01-29T15:24:00.036Z,99490.21
2018-01-29T15:26:29.114Z,99483.27
2018-01-29T15:28:57.255Z,99483.80
2018-01-29T15:31:25.393Z,99469.75
2018-01-29T15:33:55.542Z,99480.60
2018-01-29T15:36:24.506Z,99482.58
2018-01-29T15:38:53.750Z,99488.59
2018-01-29T15:41:22.943Z,99475.39
2018-01-29T15:43:51.950Z,99487.08
2018-01-29T15:46:21.221Z,99487.75
2018-01-29T15:48:50.331Z,99489.18
2018-01-29T15:51:19.747Z,99488.09
2018-01-29T15:53:47.757Z,99481.83
2018-01-29T15:56:15.805Z,99479.62
2018-01-29T15:58:43.893Z,99481.67
2018-01-29T16:01:11.916Z,99486.66
2018-01-29T16:03:39.895Z,99496.30
2018-01-29T16:06:07.913Z,99497.30
2018-01-29T16:08:35.915Z,99490.72
2018-01-29T16:11:03.899Z,99492.31
2018-01-29T16:13:31.788Z,99489.28
2018-01-29T16:15:59.765Z,99490.84
2018-01-29T16:18:27.661Z,99497.02
2018-01-29T16:20:55.921Z,99499.44
2018-01-29T16:23:23.925Z,99503.81
2018-01-29T16:25:51.868Z,99510.06
2018-01-29T16:28:19.791Z,99518.89
2018-01-29T16:30:47.697Z,99507.59
2018-01-29T16:33:15.668Z,99507.11
2018-01-29T16:35:43.544Z,99508.75
2018-01-29T16:38:11.546Z,99496.59
2018-01-29T16:40:39.379Z,99502.11
2018-01-29T16:43:07.458Z,99504.19
2018-01-29T16:45:35.467Z,99504.95
2018-01-29T16:48:03.337Z,99500.86
2018-01-29T16:50:31.363Z,99492.95
2018-01-29T16:52:59.832Z,99500.09
2018-01-29T16:55:28.043Z,99504.56
2018-01-29T16:57:55.963Z,99502.49
2018-01-29T17:00:24.085Z,99505.95
2018-01-29T17:02:52.234Z,99498.70
2018-01-29T17:05:20.307Z,99483.22
2018-01-29T17:07:48.353Z,99485.16
2018-01-29T17:10:16.398Z,99481.56
2018-01-29T17:12:44.379Z,99474.13
2018-01-29T17:15:12.427Z,99475.34
2018-01-29T17:17:40.384Z,99484.56
2018-01-29T17:20:08.406Z,99492.53
2018-01-29T17:22:36.622Z,99498.92
2018-01-29T17:25:04.641Z,99498.63
2018-01-29T17:27:32.642Z,99498.42
2018-01-29T17:30:00.617Z,99500.63
2018-01-29T17:32:28.611Z,99512.53
2018-01-29T17:34:56.675Z,99513.87
2018-01-29T17:37:24.690Z,99514.75
2018-01-29T17:39:52.664Z,99511.38
2018-01-29T17:42:20.659Z,99514.59
2018-01-29T17:44:48.637Z,99523.52
2018-01-29T17:47:16.630Z,99526.77
2018-01-29T17:49:44.568Z,99519.06
2018-01-29T17:52:12.642Z,99517.94
2018-01-29T17:54:40.574Z,99521.47
2018-01-29T17:57:08.427Z,99522.55
2018-01-29T17:59:36.372Z,99530.19
2018-01-29T18:02:04.262Z,99528.84
2018-01-29T18:04:32.119Z,99529.83
2018-01-29T18:07:00.030Z,99530.31
2018-01-29T18:09:27.963Z,99525.36
2018-01-29T18:11:55.807Z,99523.66
2018-01-29T18:14:23.715Z,99532.44
2018-01-29T18:16:51.547Z,99527.11
2018-01-29T18:19:19.390Z,99530.50
2018-01-29T18:21:47.278Z,99532.84
2018-01-29T18:24:15.266Z,99525.38
2018-01-29T18:26:43.127Z,99520.61
2018-01-29T18:29:11.012Z,99519.61
2018-01-29T18:31:39.378Z,99526.82
2018-01-29T18:34:09.282Z,99522.98
2018-01-29T18:36:37.199Z,99525.69
2018-01-29T18:39:05.106Z,99528.72
2018-01-29T18:41:32.956Z,99531.30
2018-01-29T18:44:00.843Z,99527.67
2018-01-29T18:46:28.732Z,99522.00
2018-01-29T18:48:56.646Z,99516.66
2018-01-29T18:51:24.783Z,99522.64
2018-01-29T18:53:52.678Z,99532.38
2018-01-29T18:56:20.521Z,99536.73
2018-01-29T18:58:48.397Z,99537.28
2018-01-29T19:01:16.227Z,99537.09
2018-01-29T19:03:44.066Z,99524.02
2018-01-29T19:06:11.969Z,99533.39
2018-01-29T19:08:39.892Z,99520.41
2018-01-29T19:11:07.730Z,99518.33
2018-01-29T19:13:35.647Z,99514.52
2018-01-29T19:16:03.522Z,99514.38
2018-01-29T19:18:31.415Z,99520.21
2018-01-29T19:20:59.421Z,99512.70
2018-01-29T19:23:27.250Z,99514.41
2018-01-29T19:25:55.422Z,99500.11
2018-01-29T19:28:23.407Z,99510.58
2018-01-29T19:30:51.260Z,99519.15
2018-01-29T19:33:21.249Z,99518.93
2018-01-29T19:35:49.150Z,99520.08
2018-01-29T19:38:17.007Z,99516.92
2018-01-29T19:40:44.876Z,99515.56
2018-01-29T19:43:12.784Z,99511.33
2018-01-29T19:45:40.650Z,99521.00
2018-01-29T19:48:08.495Z,99524.95
2018-01-29T19:50:36.394Z,99514.89
2018-01-29T19:53:04.263Z,99510.05
2018-01-29T19:55:32.122Z,99509.50
2018-01-29T19:58:00.035Z,99507.14
2018-01-29T20:00:27.906Z,99511.05
2018-01-29T20:02:55.747Z,99515.84
2018-01-29T20:05:23.654Z,99513.34
2018-01-29T20:07:51.580Z,99509.59
2018-01-29T20:10:19.442Z,99505.00
2018-01-29T20:12:47.374Z,99506.63
2018-01-29T20:15:15.296Z,99491.77
2018-01-29T20:17:43.127Z,99496.33
2018-01-29T20:20:11.059Z,99494.14
2018-01-29T20:22:38.899Z,99492.69
2018-01-29T20:25:06.738Z,99482.92
2018-01-29T20:27:34.758Z,99487.38
2018-01-29T20:30:02.587Z,99481.86
2018-01-29T20:32:30.431Z,99483.09
2018-01-29T20:34:59.482Z,99484.00
2018-01-29T20:37:27.331Z,99491.77
2018-01-29T20:39:55.168Z,99502.98
2018-01-29T20:42:23.081Z,99503.27
2018-01-29T20:44:50.979Z,99499.23
2018-01-29T20:47:18.818Z,99500.80
2018-01-29T20:49:46.702Z,99509.25
2018-01-29T20:52:14.569Z,99500.42
2018-01-29T20:54:42.461Z,99492.56
2018-01-29T20:57:10.353Z,99490.88
2018-01-29T20:59:38.208Z,99487.46
2018-01-29T21:02:06.053Z,99492.56
2018-01-29T21:04:34.002Z,99495.94
2018-01-29T21:07:01.838Z,99493.31
2018-01-29T21:09:30.215Z,99495.37
2018-01-29T21:11:58.115Z,99494.23
2018-01-29T21:14:25.961Z,99496.31
2018-01-29T21:16:53.799Z,99494.03
2018-01-29T21:19:22.102Z,99485.38
2018-01-29T21:21:49.959Z,99484.95
2018-01-29T21:24:17.795Z,99485.98
2018-01-29T21:26:45.714Z,99487.41
2018-01-29T21:29:13.634Z,99478.72
2018-01-29T21:31:41.475Z,99470.43
2018-01-29T21:34:09.385Z,99470.71
2018-01-29T21:36:37.222Z,99465.41
2018-01-29T21:39:05.127Z,99464.95
2018-01-29T21:41:33.059Z,99464.15
2018-01-29T21:44:00.894Z,99466.81
2018-01-29T21:46:28.744Z,99464.06
2018-01-29T21:48:56.657Z,99460.61
2018-01-29T21:51:24.565Z,99462.80
2018-01-29T21:53:52.410Z,99454.55
2018-01-29T21:56:20.533Z,99450.22
2018-01-29T21:58:48.455Z,99446.83
2018-01-29T22:01:16.412Z,99456.73
2018-01-29T22:03:44.479Z,99448.17
2018-01-29T22:06:12.321Z,99438.07
2018-01-29T22:08:40.175Z,99442.63
2018-01-29T22:11:08.112Z,99436.79
2018-01-29T22:13:35.959Z,99431.87
2018-01-29T22:16:03.834Z,99442.94
2018-01-29T22:18:31.742Z,99445.09
2018-01-29T22:20:59.570Z,99438.98
2018-01-29T22:23:27.408Z,99426.47
2018-01-29T22:25:55.338Z,99417.21
2018-01-29T22:28:23.187Z,99419.20
2018-01-29T22:30:51.708Z,99416.48
2018-01-29T22:33:19.962Z,99415.88
2018-01-29T22:35:47.807Z,99423.77
2018-01-29T22:38:15.638Z,99416.11
2018-01-29T22:40:43.534Z,99417.88
2018-01-29T22:43:11.373Z,99415.80
2018-01-29T22:45:39.210Z,99411.20
2018-01-29T22:48:07.095Z,99411.79
2018-01-29T22:50:34.922Z,99407.55
2018-01-29T22:53:02.772Z,99403.90
2018-01-29T22:55:30.669Z,99398.92
2018-01-29T22:57:58.615Z,99394.05
2018-01-29T23:00:26.445Z,99395.02
2018-01-29T23:02:54.399Z,99394.05
2018-01-29T23:05:22.223Z,99393.39
2018-01-29T23:07:50.086Z,99394.55
2018-01-29T23:10:17.996Z,99390.47
2018-01-29T23:12:45.826Z,99391.58
2018-01-29T23:15:13.698Z,99390.35
2018-01-29T23:17:41.631Z,99389.06
2018-01-29T23:20:09.556Z,99384.83
2018-01-29T23:22:37.387Z,99385.56
2018-01-29T23:25:05.662Z,99387.69
2018-01-29T23:27:33.507Z,99391.40
2018-01-29T23:30:01.343Z,99380.69
2018-01-29T23:32:29.358Z,99384.08
2018-01-29T23:34:57.213Z,99374.38
2018-01-29T23:37:25.051Z,99386.52
2018-01-29T23:39:52.938Z,99384.47
2018-01-29T23:42:20.774Z,99384.55
2018-01-29T23:44:48.639Z,99375.37
2018-01-29T23:47:16.523Z,99375.17
2018-01-29T23:49:44.373Z,99378.66
2018-01-29T23:52:12.198Z,99372.94
2018-01-29T23:54:40.086Z,99374.56
2018-01-29T23:57:07.918Z,99378.68
2018-01-29T23:59:35.758Z,99370.19
